Terminal Aerodrome Forecast
Issued by NWS

Home | Current Version | Previous Version | Graphics & Text | Print | Product List | Glossary On
Versions: 1 2 3 4 5 6 7 8 9 10 11 12 13 14 15
000
FTUS43 KMPX 281357 AAB
TAFRWF
TAF AMD
KRWF 281357Z 2814/2912 19012G18KT P6SM BKN150
     FM281600 12018G25KT P6SM SCT030 BKN040
     FM282200 25015G23KT P6SM BKN045
     FM290200 26014G20KT P6SM SCT250=

USA.gov is the U.S. government's official web portal to all federal, state and local government web resources and services.